Time;durP1;ratioP1;P1;durP2;ratioP2;P2;SDS_P1;SDS_P2;PMS_P1;PMS_P2;Temp;Humidity;BMP_temperature;BMP_pressure;BME280_temperature;BME280_humidity;BME280_pressure;Samples;Min_cycle;Max_cycle;Signal;HPM_P1;HPM_P2
2022/04/28 00:00:37;;;;;;;;;;;;;;;;;;1900835;28;8040;-69
2022/04/28 00:01:35;;;;;;;;;;;;;;;;;;1905064;28;7009;-71
2022/04/28 00:02:33;;;;;;;;;;;;;;;;;;1904257;28;7093;-72
2022/04/28 00:03:31;;;;;;;;;;;;;;;;;;1896078;28;7034;-69
2022/04/28 00:04:28;;;;;;;;;;;;;;;;;;1898523;28;7025;-69
2022/04/28 00:05:26;;;;;;;;;;;;;;;;;;1902559;28;7018;-69
2022/04/28 00:06:24;;;;;;;;;;;;;;;;;;1896923;28;8041;-71
2022/04/28 00:07:22;;;;;;;;;;;;;;;;;;1900232;28;8702;-68
2022/04/28 00:08:19;;;;;;;;;;;;;;;;;;1904845;28;7009;-69
2022/04/28 00:09:17;;;;;;;;;;;;;;;;;;1904716;28;7002;-68
2022/04/28 00:10:14;;;;;;;;;;;;;;;;;;1904463;28;7149;-70
2022/04/28 00:11:12;;;;;;;;;;;;;;;;;;1903912;28;7041;-71
2022/04/28 00:12:10;;;;;;;;;;;;;;;;;;1903951;28;7005;-68
2022/04/28 00:13:09;;;;;;;;;;;;;;;;;;1902664;28;7368;-71
2022/04/28 00:14:09;;;;;;;;;;;;;;;;;;1904034;28;7001;-68
2022/04/28 00:15:07;;;;;;;;;;;;;;;;;;1897351;28;7133;-69
2022/04/28 00:16:05;;;;;;;;;;;;;;;;;;1897047;28;7088;-72
2022/04/28 00:17:03;;;;;;;;;;;;;;;;;;1889301;28;7260;-72
2022/04/28 00:18:01;;;;;;;;;;;;;;;;;;1889051;28;7017;-67
2022/04/28 00:18:58;;;;;;;;;;;;;;;;;;1896183;28;7033;-69
2022/04/28 00:19:55;;;;;;;;;;;;;;;;;;1896752;28;7048;-71
2022/04/28 00:20:53;;;;;;;;;;;;;;;;;;1896359;28;7014;-71
2022/04/28 00:21:50;;;;;;;;;;;;;;;;;;1901841;28;7026;-68
2022/04/28 00:22:48;;;;;;;;;;;;;;;;;;1904789;28;7201;-71
2022/04/28 00:23:45;;;;;;;;;;;;;;;;;;1904271;28;7009;-72
2022/04/28 00:24:43;;;;;;;;;;;;;;;;;;1898554;28;7013;-70
2022/04/28 00:25:40;;;;;;;;;;;;;;;;;;1901667;28;8829;-70
2022/04/28 00:26:38;;;;;;;;;;;;;;;;;;1905382;28;7068;-69
2022/04/28 00:27:36;;;;;;;;;;;;;;;;;;1898411;28;8043;-72
2022/04/28 00:28:33;;;;;;;;;;;;;;;;;;1898979;28;7157;-72
2022/04/28 00:29:31;;;;;;;;;;;;;;;;;;1898695;28;7013;-71
2022/04/28 00:30:28;;;;;;;;;;;;;;;;;;1898042;28;8294;-70
2022/04/28 00:31:25;;;;;;;;;;;;;;;;;;1905669;28;7026;-70
2022/04/28 00:32:23;;;;;;;;;;;;;;;;;;1905535;28;7005;-68
2022/04/28 00:33:21;;;;;;;;;;;;;;;;;;1906167;28;7033;-70
2022/04/28 00:34:18;;;;;;;;;;;;;;;;;;1905645;28;7104;-71
2022/04/28 00:35:16;;;;;;;;;;;;;;;;;;1898654;28;7088;-71
2022/04/28 00:36:14;;;;;;;;;;;;;;;;;;1898731;28;7018;-69
2022/04/28 00:37:13;;;;;;;;;;;;;;;;;;1898359;28;7103;-70
2022/04/28 00:38:11;;;;;;;;;;;;;;;;;;1890593;28;7001;-71
2022/04/28 00:39:09;;;;;;;;;;;;;;;;;;1895427;28;7021;-70
2022/04/28 00:40:07;;;;;;;;;;;;;;;;;;1904811;28;7113;-70
2022/04/28 00:41:05;;;;;;;;;;;;;;;;;;1912901;28;7187;-71
2022/04/28 00:42:06;;;;;;;;;;;;;;;;;;1912936;28;7006;-71
2022/04/28 00:43:19;;;;;;;;;;;;;;;;;;1905628;28;7046;-70
2022/04/28 00:44:16;;;;;;;;;;;;;;;;;;1896601;28;7189;-68
2022/04/28 00:45:14;;;;;;;;;;;;;;;;;;1905041;28;7069;-69
2022/04/28 00:46:11;;;;;;;;;;;;;;;;;;1905388;28;8024;-69
2022/04/28 00:47:09;;;;;;;;;;;;;;;;;;1904922;28;7038;-70
2022/04/28 00:50:39;;;;;;;;;;;;;;;;;;1898378;28;7131;-70
2022/04/28 00:51:37;;;;;;;;;;;;;;;;;;1898195;28;7018;-67
2022/04/28 00:52:35;;;;;;;;;;;;;;;;;;1899582;28;7113;-67
2022/04/28 00:53:41;;;;;;;;;;;;;;;;;;1905598;28;7026;-67
2022/04/28 00:54:38;;;;;;;;;;;;;;;;;;1905499;28;8352;-68
2022/04/28 00:55:36;;;;;;;;;;;;;;;;;;1903419;28;7009;-71
2022/04/28 00:56:34;;;;;;;;;;;;;;;;;;1898110;28;7006;-69
2022/04/28 00:57:33;;;;;;;;;;;;;;;;;;1898702;28;7006;-69
2022/04/28 00:58:31;;;;;;;;;;;;;;;;;;1898861;28;7120;-70
2022/04/28 00:59:30;;;;;;;;;;;;;;;;;;1898263;28;7049;-68
2022/04/28 01:00:28;;;;;;;;;;;;;;;;;;1896257;28;7138;-68
2022/04/28 01:01:25;;;;;;;;;;;;;;;;;;1890227;28;7836;-71
2022/04/28 01:02:24;;;;;;;;;;;;;;;;;;1889901;28;7005;-69
2022/04/28 01:03:23;;;;;;;;;;;;;;;;;;1897082;28;7106;-68
2022/04/28 01:04:20;;;;;;;;;;;;;;;;;;1898262;28;7006;-68
2022/04/28 01:05:18;;;;;;;;;;;;;;;;;;1898989;28;8919;-70
2022/04/28 01:06:16;;;;;;;;;;;;;;;;;;1897143;28;7171;-69
2022/04/28 01:07:13;;;;;;;;;;;;;;;;;;1897965;28;7317;-69
2022/04/28 01:08:11;;;;;;;;;;;;;;;;;;1896373;28;7030;-68
2022/04/28 01:09:08;;;;;;;;;;;;;;;;;;1897742;28;7006;-70
2022/04/28 01:10:06;;;;;;;;;;;;;;;;;;1898191;28;7042;-69
2022/04/28 01:11:03;;;;;;;;;;;;;;;;;;1897979;28;7009;-70
2022/04/28 01:12:01;;;;;;;;;;;;;;;;;;1905769;28;7181;-69
2022/04/28 01:12:58;;;;;;;;;;;;;;;;;;1904488;28;7046;-68
2022/04/28 01:13:56;;;;;;;;;;;;;;;;;;1890845;28;8076;-70
2022/04/28 01:14:53;;;;;;;;;;;;;;;;;;1890278;28;8014;-69
2022/04/28 01:15:51;;;;;;;;;;;;;;;;;;1896539;28;7104;-70
2022/04/28 01:16:48;;;;;;;;;;;;;;;;;;1897807;28;7148;-71
2022/04/28 01:17:45;;;;;;;;;;;;;;;;;;1896695;28;7360;-68
2022/04/28 01:18:43;;;;;;;;;;;;;;;;;;1898582;28;7006;-70
2022/04/28 01:19:40;;;;;;;;;;;;;;;;;;1898478;28;7133;-69
2022/04/28 01:20:38;;;;;;;;;;;;;;;;;;1898002;28;7042;-72
2022/04/28 01:21:36;;;;;;;;;;;;;;;;;;1897644;28;7333;-67
2022/04/28 01:22:33;;;;;;;;;;;;;;;;;;1897575;28;7038;-70
2022/04/28 01:23:32;;;;;;;;;;;;;;;;;;1896945;28;7124;-69
2022/04/28 01:24:30;;;;;;;;;;;;;;;;;;1897792;28;7096;-71
2022/04/28 01:25:28;;;;;;;;;;;;;;;;;;1898132;28;7362;-67
2022/04/28 01:26:27;;;;;;;;;;;;;;;;;;1897759;28;7006;-70
2022/04/28 01:27:25;;;;;;;;;;;;;;;;;;1898227;28;7149;-70
2022/04/28 01:28:23;;;;;;;;;;;;;;;;;;1897945;28;7010;-69
2022/04/28 01:29:21;;;;;;;;;;;;;;;;;;1896538;28;8012;-70
2022/04/28 01:30:18;;;;;;;;;;;;;;;;;;1897522;28;7102;-68
2022/04/28 01:31:16;;;;;;;;;;;;;;;;;;1897527;28;7092;-69
2022/04/28 01:32:13;;;;;;;;;;;;;;;;;;1898140;28;7028;-70
2022/04/28 01:33:11;;;;;;;;;;;;;;;;;;1898220;28;7120;-67
2022/04/28 01:34:08;;;;;;;;;;;;;;;;;;1897687;28;7133;-68
2022/04/28 01:35:06;;;;;;;;;;;;;;;;;;1897762;28;7124;-69
2022/04/28 01:36:04;;;;;;;;;;;;;;;;;;1897890;28;7005;-69
2022/04/28 01:37:01;;;;;;;;;;;;;;;;;;1896416;28;7215;-69
2022/04/28 01:37:59;;;;;;;;;;;;;;;;;;1889552;28;7089;-70
2022/04/28 01:38:56;;;;;;;;;;;;;;;;;;1889990;28;7324;-67
2022/04/28 01:39:55;;;;;;;;;;;;;;;;;;1897201;28;7217;-70
2022/04/28 01:40:53;;;;;;;;;;;;;;;;;;1897897;28;8024;-69
2022/04/28 01:41:50;;;;;;;;;;;;;;;;;;1897763;28;9746;-69
2022/04/28 01:42:48;;;;;;;;;;;;;;;;;;1896802;28;7021;-69
2022/04/28 01:43:45;;;;;;;;;;;;;;;;;;1897396;28;7034;-68
2022/04/28 01:44:43;;;;;;;;;;;;;;;;;;1897741;28;7117;-69
2022/04/28 01:45:40;;;;;;;;;;;;;;;;;;1898110;28;8329;-68
2022/04/28 01:46:38;;;;;;;;;;;;;;;;;;1896760;28;7042;-68
2022/04/28 01:47:35;;;;;;;;;;;;;;;;;;1897504;28;7096;-70
2022/04/28 01:48:33;;;;;;;;;;;;;;;;;;1898282;28;7046;-70
2022/04/28 01:49:30;;;;;;;;;;;;;;;;;;1897837;28;7096;-70
2022/04/28 01:50:28;;;;;;;;;;;;;;;;;;1897940;28;7033;-68
2022/04/28 01:55:13;;;;;;;;;;;;;;;;;;1897911;28;7013;-71
2022/04/28 01:56:10;;;;;;;;;;;;;;;;;;1897731;28;7155;-69
2022/04/28 01:57:07;;;;;;;;;;;;;;;;;;1904495;28;7009;-67
2022/04/28 01:58:05;;;;;;;;;;;;;;;;;;1904401;28;7104;-69
2022/04/28 01:59:03;;;;;;;;;;;;;;;;;;1905457;28;7089;-69
2022/04/28 02:00:01;;;;;;;;;;;;;;;;;;1905685;28;7005;-71
2022/04/28 02:00:58;;;;;;;;;;;;;;;;;;1904896;28;8540;-69
2022/04/28 02:01:56;;;;;;;;;;;;;;;;;;1905333;28;7025;-69
2022/04/28 02:02:54;;;;;;;;;;;;;;;;;;1897912;28;7117;-71
2022/04/28 02:03:51;;;;;;;;;;;;;;;;;;1897017;28;7042;-70
2022/04/28 02:04:49;;;;;;;;;;;;;;;;;;1904100;28;7050;-68
2022/04/28 02:05:47;;;;;;;;;;;;;;;;;;1904698;28;7013;-70
2022/04/28 02:06:45;;;;;;;;;;;;;;;;;;1905268;28;7096;-67
2022/04/28 02:07:44;;;;;;;;;;;;;;;;;;1904644;28;7027;-70
2022/04/28 02:08:41;;;;;;;;;;;;;;;;;;1904814;28;7014;-71
2022/04/28 02:09:40;;;;;;;;;;;;;;;;;;1904963;28;7093;-70
2022/04/28 02:10:37;;;;;;;;;;;;;;;;;;1905041;28;7034;-70
2022/04/28 02:11:34;;;;;;;;;;;;;;;;;;1905364;28;8039;-72
2022/04/28 02:12:32;;;;;;;;;;;;;;;;;;1905153;28;7042;-68
2022/04/28 02:13:29;;;;;;;;;;;;;;;;;;1905984;28;7144;-70
2022/04/28 02:14:27;;;;;;;;;;;;;;;;;;1904842;28;7010;-68
2022/04/28 02:15:24;;;;;;;;;;;;;;;;;;1905183;28;7097;-69
2022/04/28 02:16:22;;;;;;;;;;;;;;;;;;1903490;28;7213;-69
2022/04/28 02:17:20;;;;;;;;;;;;;;;;;;1905034;28;7216;-68
2022/04/28 02:18:17;;;;;;;;;;;;;;;;;;1905161;28;7009;-68
2022/04/28 02:19:15;;;;;;;;;;;;;;;;;;1904978;28;7006;-70
2022/04/28 02:20:13;;;;;;;;;;;;;;;;;;1904206;28;7335;-69
2022/04/28 02:21:10;;;;;;;;;;;;;;;;;;1905156;28;8318;-70
2022/04/28 02:22:08;;;;;;;;;;;;;;;;;;1904919;28;7134;-70
2022/04/28 02:23:05;;;;;;;;;;;;;;;;;;1904999;28;7005;-70
2022/04/28 02:24:03;;;;;;;;;;;;;;;;;;1904879;28;7010;-70
2022/04/28 02:25:00;;;;;;;;;;;;;;;;;;1905003;28;7001;-72
2022/04/28 02:25:57;;;;;;;;;;;;;;;;;;1905155;28;7092;-70
2022/04/28 02:26:55;;;;;;;;;;;;;;;;;;1905367;28;7034;-69
2022/04/28 02:27:52;;;;;;;;;;;;;;;;;;1905388;28;7010;-70
2022/04/28 02:28:50;;;;;;;;;;;;;;;;;;1905037;28;7001;-70
2022/04/28 02:29:47;;;;;;;;;;;;;;;;;;1905094;28;7113;-70
2022/04/28 02:30:44;;;;;;;;;;;;;;;;;;1904996;28;7199;-72
2022/04/28 02:31:42;;;;;;;;;;;;;;;;;;1905479;28;7113;-70
2022/04/28 02:33:55;;;;;;;;;;;;;;;;;;1904921;28;7033;-71
2022/04/28 02:34:53;;;;;;;;;;;;;;;;;;1905250;28;7132;-70
2022/04/28 02:35:50;;;;;;;;;;;;;;;;;;1905069;28;8041;-70
2022/04/28 02:36:48;;;;;;;;;;;;;;;;;;1903869;28;7097;-72
2022/04/28 02:37:45;;;;;;;;;;;;;;;;;;1905208;28;7074;-71
2022/04/28 02:38:42;;;;;;;;;;;;;;;;;;1904890;28;7045;-71
2022/04/28 02:39:40;;;;;;;;;;;;;;;;;;1905090;28;7042;-69
2022/04/28 02:40:38;;;;;;;;;;;;;;;;;;1905151;28;7038;-71
2022/04/28 02:41:36;;;;;;;;;;;;;;;;;;1905505;28;7096;-68
2022/04/28 02:42:33;;;;;;;;;;;;;;;;;;1905343;28;7315;-69
2022/04/28 02:43:31;;;;;;;;;;;;;;;;;;1904910;28;8074;-68
2022/04/28 02:44:28;;;;;;;;;;;;;;;;;;1905106;28;7010;-69
2022/04/28 02:45:26;;;;;;;;;;;;;;;;;;1904991;28;7092;-69
2022/04/28 02:46:24;;;;;;;;;;;;;;;;;;1904980;28;7005;-69
2022/04/28 02:47:21;;;;;;;;;;;;;;;;;;1905345;28;7009;-70
2022/04/28 02:48:19;;;;;;;;;;;;;;;;;;1904698;28;7006;-69
2022/04/28 02:49:16;;;;;;;;;;;;;;;;;;1905612;28;7025;-69
2022/04/28 02:50:14;;;;;;;;;;;;;;;;;;1905055;28;7328;-71
2022/04/28 02:51:11;;;;;;;;;;;;;;;;;;1903764;28;7042;-68
2022/04/28 02:52:09;;;;;;;;;;;;;;;;;;1905009;28;7005;-68
2022/04/28 02:53:06;;;;;;;;;;;;;;;;;;1905272;28;7013;-72
2022/04/28 02:54:04;;;;;;;;;;;;;;;;;;1904597;28;7001;-70
2022/04/28 02:55:01;;;;;;;;;;;;;;;;;;1905120;28;7050;-67
2022/04/28 02:55:59;;;;;;;;;;;;;;;;;;1903961;28;7006;-68
2022/04/28 02:56:56;;;;;;;;;;;;;;;;;;1905091;28;7120;-67
2022/04/28 02:57:54;;;;;;;;;;;;;;;;;;1905157;28;7009;-68
2022/04/28 02:58:56;;;;;;;;;;;;;;;;;;1904876;28;7054;-71
2022/04/28 02:59:54;;;;;;;;;;;;;;;;;;1904808;28;7037;-70
2022/04/28 03:00:51;;;;;;;;;;;;;;;;;;1904700;28;7010;-69
2022/04/28 03:01:49;;;;;;;;;;;;;;;;;;1904905;28;7010;-69
2022/04/28 03:02:46;;;;;;;;;;;;;;;;;;1904673;28;7017;-68
2022/04/28 03:03:44;;;;;;;;;;;;;;;;;;1905300;28;7009;-67
2022/04/28 03:04:41;;;;;;;;;;;;;;;;;;1904655;28;7050;-70
2022/04/28 03:10:51;;;;;;;;;;;;;;;;;;1904796;28;7046;-70
2022/04/28 03:11:49;;;;;;;;;;;;;;;;;;1904547;28;8503;-70
2022/04/28 03:12:47;;;;;;;;;;;;;;;;;;1904839;28;7299;-67
2022/04/28 03:13:44;;;;;;;;;;;;;;;;;;1905238;28;7005;-68
2022/04/28 03:14:41;;;;;;;;;;;;;;;;;;1904932;28;7316;-70
2022/04/28 03:15:39;;;;;;;;;;;;;;;;;;1902903;28;7155;-69
2022/04/28 03:16:36;;;;;;;;;;;;;;;;;;1903391;28;7109;-67
2022/04/28 03:17:34;;;;;;;;;;;;;;;;;;1904552;28;7230;-70
2022/04/28 03:18:31;;;;;;;;;;;;;;;;;;1904436;28;7050;-69
2022/04/28 03:19:28;;;;;;;;;;;;;;;;;;1904642;28;7112;-71
2022/04/28 03:20:26;;;;;;;;;;;;;;;;;;1909566;28;7006;-70
2022/04/28 03:21:23;;;;;;;;;;;;;;;;;;1912544;28;7021;-70
2022/04/28 03:22:21;;;;;;;;;;;;;;;;;;1911831;28;7117;-69
2022/04/28 03:23:18;;;;;;;;;;;;;;;;;;1912283;28;7370;-69
2022/04/28 03:24:15;;;;;;;;;;;;;;;;;;1903620;28;7269;-71
2022/04/28 03:25:13;;;;;;;;;;;;;;;;;;1903913;28;7009;-69
2022/04/28 03:26:11;;;;;;;;;;;;;;;;;;1902743;28;7034;-73
2022/04/28 03:27:08;;;;;;;;;;;;;;;;;;1900294;28;8096;-71
2022/04/28 03:28:06;;;;;;;;;;;;;;;;;;1904793;28;8027;-68
2022/04/28 03:29:03;;;;;;;;;;;;;;;;;;1904913;28;7009;-69
2022/04/28 03:30:01;;;;;;;;;;;;;;;;;;1904576;28;7093;-68
2022/04/28 03:30:58;;;;;;;;;;;;;;;;;;1904790;28;7010;-72
2022/04/28 03:31:55;;;;;;;;;;;;;;;;;;1903406;28;7373;-70
2022/04/28 03:32:53;;;;;;;;;;;;;;;;;;1904841;28;7042;-67
2022/04/28 03:33:50;;;;;;;;;;;;;;;;;;1904999;28;7006;-71
2022/04/28 03:34:48;;;;;;;;;;;;;;;;;;1904727;28;7050;-71
2022/04/28 03:35:45;;;;;;;;;;;;;;;;;;1904948;28;7009;-69
2022/04/28 03:36:51;;;;;;;;;;;;;;;;;;1904994;28;7014;-70
2022/04/28 03:37:49;;;;;;;;;;;;;;;;;;1904741;28;8217;-73
2022/04/28 03:38:46;;;;;;;;;;;;;;;;;;1904614;28;7006;-70
2022/04/28 03:39:44;;;;;;;;;;;;;;;;;;1904206;28;7241;-71
2022/04/28 03:40:42;;;;;;;;;;;;;;;;;;1904601;28;7109;-68
2022/04/28 03:41:40;;;;;;;;;;;;;;;;;;1905031;28;7021;-70
2022/04/28 03:42:38;;;;;;;;;;;;;;;;;;1904559;28;7113;-70
2022/04/28 03:43:35;;;;;;;;;;;;;;;;;;1904531;28;7014;-69
2022/04/28 03:44:34;;;;;;;;;;;;;;;;;;1904489;28;7124;-70
2022/04/28 03:45:33;;;;;;;;;;;;;;;;;;1904256;28;7136;-69
2022/04/28 03:46:30;;;;;;;;;;;;;;;;;;1904636;28;7092;-69
2022/04/28 03:47:31;;;;;;;;;;;;;;;;;;1903234;28;7096;-67
2022/04/28 03:48:29;;;;;;;;;;;;;;;;;;1904280;28;7014;-72
2022/04/28 03:49:26;;;;;;;;;;;;;;;;;;1904964;28;7084;-69
2022/04/28 03:50:24;;;;;;;;;;;;;;;;;;1904564;28;7092;-69
2022/04/28 03:51:21;;;;;;;;;;;;;;;;;;1904993;28;7014;-70
2022/04/28 03:52:19;;;;;;;;;;;;;;;;;;1904637;28;7025;-68
2022/04/28 03:53:21;;;;;;;;;;;;;;;;;;1904113;28;7131;-69
2022/04/28 03:54:19;;;;;;;;;;;;;;;;;;1904354;28;7033;-70
2022/04/28 03:55:16;;;;;;;;;;;;;;;;;;1904515;28;7281;-68
2022/04/28 03:56:13;;;;;;;;;;;;;;;;;;1904936;28;7712;-67
2022/04/28 03:57:11;;;;;;;;;;;;;;;;;;1904677;28;7096;-71
2022/04/28 03:58:08;;;;;;;;;;;;;;;;;;1904465;28;7021;-68
2022/04/28 03:59:05;;;;;;;;;;;;;;;;;;1904857;28;7251;-69
2022/04/28 04:00:05;;;;;;;;;;;;;;;;;;1903946;28;7014;-70
2022/04/28 04:01:02;;;;;;;;;;;;;;;;;;1887860;28;7133;-70
2022/04/28 04:01:59;;;;;;;;;;;;;;;;;;1889280;28;7031;-70
2022/04/28 04:02:57;;;;;;;;;;;;;;;;;;1895926;28;7093;-70
2022/04/28 04:03:55;;;;;;;;;;;;;;;;;;1904263;28;7117;-71
2022/04/28 04:04:53;;;;;;;;;;;;;;;;;;1903653;28;7173;-70
2022/04/28 04:05:50;;;;;;;;;;;;;;;;;;1903702;28;7006;-71
2022/04/28 04:06:48;;;;;;;;;;;;;;;;;;1905043;28;7304;-70
2022/04/28 04:07:45;;;;;;;;;;;;;;;;;;1904361;28;7005;-68
2022/04/28 04:08:42;;;;;;;;;;;;;;;;;;1904307;28;7005;-70
2022/04/28 04:09:40;;;;;;;;;;;;;;;;;;1903241;28;8051;-68
2022/04/28 04:10:37;;;;;;;;;;;;;;;;;;1904851;28;8066;-71
2022/04/28 04:11:35;;;;;;;;;;;;;;;;;;1904691;28;7029;-69
2022/04/28 04:12:32;;;;;;;;;;;;;;;;;;1904720;28;7093;-70
2022/04/28 04:13:30;;;;;;;;;;;;;;;;;;1904418;28;7093;-72
2022/04/28 04:14:27;;;;;;;;;;;;;;;;;;1904446;28;7050;-68
2022/04/28 04:15:24;;;;;;;;;;;;;;;;;;1904175;28;8055;-72
2022/04/28 04:16:22;;;;;;;;;;;;;;;;;;1903421;28;7009;-71
2022/04/28 04:17:20;;;;;;;;;;;;;;;;;;1904430;28;7096;-69
2022/04/28 04:18:18;;;;;;;;;;;;;;;;;;1904440;28;7089;-71
2022/04/28 04:19:15;;;;;;;;;;;;;;;;;;1905096;28;7578;-70
2022/04/28 04:20:13;;;;;;;;;;;;;;;;;;1905209;28;7038;-67
2022/04/28 04:21:10;;;;;;;;;;;;;;;;;;1903124;28;7121;-68
2022/04/28 04:22:08;;;;;;;;;;;;;;;;;;1903827;28;7097;-69
2022/04/28 04:23:06;;;;;;;;;;;;;;;;;;1904745;28;7092;-70
2022/04/28 04:24:03;;;;;;;;;;;;;;;;;;1904598;28;7006;-69
2022/04/28 04:25:02;;;;;;;;;;;;;;;;;;1904564;28;7009;-69
2022/04/28 04:26:01;;;;;;;;;;;;;;;;;;1894931;28;7139;-70
2022/04/28 04:26:58;;;;;;;;;;;;;;;;;;1896262;28;7371;-68
2022/04/28 04:27:56;;;;;;;;;;;;;;;;;;1903509;28;7009;-69
2022/04/28 04:28:53;;;;;;;;;;;;;;;;;;1903976;28;8056;-70
2022/04/28 04:29:51;;;;;;;;;;;;;;;;;;1904333;28;7478;-69
2022/04/28 04:32:20;;;;;;;;;;;;;;;;;;1904427;28;7125;-71
2022/04/28 04:33:18;;;;;;;;;;;;;;;;;;1904186;28;7041;-68
2022/04/28 04:34:16;;;;;;;;;;;;;;;;;;1904485;28;7010;-69
2022/04/28 04:35:13;;;;;;;;;;;;;;;;;;1903657;28;7097;-71
2022/04/28 04:36:10;;;;;;;;;;;;;;;;;;1904414;28;7093;-70
2022/04/28 04:37:08;;;;;;;;;;;;;;;;;;1904147;28;7096;-69
2022/04/28 04:38:05;;;;;;;;;;;;;;;;;;1904447;28;7077;-71
2022/04/28 04:39:03;;;;;;;;;;;;;;;;;;1904745;28;7324;-70
2022/04/28 04:40:00;;;;;;;;;;;;;;;;;;1904684;28;7013;-67
2022/04/28 04:40:58;;;;;;;;;;;;;;;;;;1904743;28;7565;-71
2022/04/28 04:41:55;;;;;;;;;;;;;;;;;;1904720;28;7010;-68
2022/04/28 04:42:52;;;;;;;;;;;;;;;;;;1904653;28;7033;-70
2022/04/28 04:43:50;;;;;;;;;;;;;;;;;;1904371;28;7097;-67
2022/04/28 04:44:47;;;;;;;;;;;;;;;;;;1904697;28;7359;-70
2022/04/28 04:45:45;;;;;;;;;;;;;;;;;;1903456;28;7110;-69
2022/04/28 04:46:43;;;;;;;;;;;;;;;;;;1904301;28;7266;-70
2022/04/28 04:47:41;;;;;;;;;;;;;;;;;;1904662;28;7151;-70
2022/04/28 04:48:38;;;;;;;;;;;;;;;;;;1905191;28;7042;-67
2022/04/28 04:49:35;;;;;;;;;;;;;;;;;;1904842;28;7096;-67
2022/04/28 04:50:33;;;;;;;;;;;;;;;;;;1904759;28;8047;-69
2022/04/28 04:51:30;;;;;;;;;;;;;;;;;;1904551;28;7034;-68
2022/04/28 04:52:28;;;;;;;;;;;;;;;;;;1904570;28;7093;-70
2022/04/28 04:53:25;;;;;;;;;;;;;;;;;;1904352;28;7070;-69
2022/04/28 04:54:23;;;;;;;;;;;;;;;;;;1904785;28;7010;-70
2022/04/28 04:55:20;;;;;;;;;;;;;;;;;;1905074;28;7010;-70
2022/04/28 04:56:18;;;;;;;;;;;;;;;;;;1903473;28;7125;-68
2022/04/28 04:57:15;;;;;;;;;;;;;;;;;;1904092;28;7017;-68
2022/04/28 04:58:13;;;;;;;;;;;;;;;;;;1904686;28;7001;-73
2022/04/28 04:59:10;;;;;;;;;;;;;;;;;;1904529;28;7014;-69
2022/04/28 05:00:08;;;;;;;;;;;;;;;;;;1904437;28;7010;-70
2022/04/28 05:01:06;;;;;;;;;;;;;;;;;;1905095;28;7284;-70
2022/04/28 05:02:03;;;;;;;;;;;;;;;;;;1905090;28;7292;-68
2022/04/28 05:03:01;;;;;;;;;;;;;;;;;;1904481;28;8044;-71
2022/04/28 05:03:59;;;;;;;;;;;;;;;;;;1904865;28;7009;-68
2022/04/28 05:04:56;;;;;;;;;;;;;;;;;;1904226;28;7316;-70
2022/04/28 05:05:54;;;;;;;;;;;;;;;;;;1902320;28;7014;-68
2022/04/28 05:06:51;;;;;;;;;;;;;;;;;;1904642;28;7009;-67
2022/04/28 05:07:49;;;;;;;;;;;;;;;;;;1904758;28;7105;-68
2022/04/28 05:08:46;;;;;;;;;;;;;;;;;;1904829;28;7010;-69
2022/04/28 05:09:44;;;;;;;;;;;;;;;;;;1904611;28;8198;-67
2022/04/28 05:10:41;;;;;;;;;;;;;;;;;;1904949;28;7021;-68
2022/04/28 05:11:39;;;;;;;;;;;;;;;;;;1906022;28;7304;-68
2022/04/28 05:12:36;;;;;;;;;;;;;;;;;;1904990;28;7097;-68
2022/04/28 05:13:33;;;;;;;;;;;;;;;;;;1905976;28;7017;-67
2022/04/28 05:14:31;;;;;;;;;;;;;;;;;;1897841;28;7014;-70
2022/04/28 05:15:28;;;;;;;;;;;;;;;;;;1898094;28;7033;-71
2022/04/28 05:16:25;;;;;;;;;;;;;;;;;;1904359;28;7005;-68
2022/04/28 05:17:23;;;;;;;;;;;;;;;;;;1905745;28;7364;-69
2022/04/28 05:18:20;;;;;;;;;;;;;;;;;;1905232;28;7009;-68
2022/04/28 05:19:18;;;;;;;;;;;;;;;;;;1905997;28;7038;-69
2022/04/28 05:20:15;;;;;;;;;;;;;;;;;;1905350;28;7071;-69
2022/04/28 05:21:13;;;;;;;;;;;;;;;;;;1905710;28;7013;-69
2022/04/28 05:22:10;;;;;;;;;;;;;;;;;;1905904;28;7096;-68
2022/04/28 05:23:07;;;;;;;;;;;;;;;;;;1905541;28;7010;-67
2022/04/28 05:24:05;;;;;;;;;;;;;;;;;;1905717;28;7104;-71
2022/04/28 05:25:02;;;;;;;;;;;;;;;;;;1905939;28;7373;-70
2022/04/28 05:26:00;;;;;;;;;;;;;;;;;;1904445;28;7046;-70
2022/04/28 05:26:57;;;;;;;;;;;;;;;;;;1905834;28;7033;-67
2022/04/28 05:27:55;;;;;;;;;;;;;;;;;;1905543;28;7049;-71
2022/04/28 05:28:52;;;;;;;;;;;;;;;;;;1906048;28;7010;-71
2022/04/28 05:29:50;;;;;;;;;;;;;;;;;;1905543;28;7383;-67
2022/04/28 05:30:47;;;;;;;;;;;;;;;;;;1905249;28;7042;-68
2022/04/28 05:31:45;;;;;;;;;;;;;;;;;;1905521;28;8001;-68
2022/04/28 05:32:42;;;;;;;;;;;;;;;;;;1904397;28;7018;-69
2022/04/28 05:33:42;;;;;;;;;;;;;;;;;;1905412;28;7005;-69
2022/04/28 05:34:39;;;;;;;;;;;;;;;;;;1905356;28;7038;-67
2022/04/28 05:35:41;;;;;;;;;;;;;;;;;;1898168;28;7025;-70
2022/04/28 05:36:39;;;;;;;;;;;;;;;;;;1897647;28;7033;-68
2022/04/28 05:37:37;;;;;;;;;;;;;;;;;;1905517;28;7130;-71
2022/04/28 05:38:36;;;;;;;;;;;;;;;;;;1905456;28;7018;-71
2022/04/28 05:39:34;;;;;;;;;;;;;;;;;;1905944;28;7197;-69
2022/04/28 05:40:32;;;;;;;;;;;;;;;;;;1904013;28;7097;-70
2022/04/28 05:41:29;;;;;;;;;;;;;;;;;;1905040;28;7013;-69
2022/04/28 05:45:41;;;;;;;;;;;;;;;;;;1905918;28;7017;-69
2022/04/28 05:46:16;;;;;;;;;;;;;;;;;;1905215;28;7231;-71
2022/04/28 05:47:13;;;;;;;;;;;;;;;;;;1905269;28;7046;-69
2022/04/28 05:48:12;;;;;;;;;;;;;;;;;;1905826;28;7009;-67
2022/04/28 05:49:10;;;;;;;;;;;;;;;;;;1905656;28;7029;-68
2022/04/28 05:50:07;;;;;;;;;;;;;;;;;;1905804;28;7125;-70
2022/04/28 05:51:05;;;;;;;;;;;;;;;;;;1905740;28;7018;-68
2022/04/28 05:52:02;;;;;;;;;;;;;;;;;;1905950;28;7063;-69
2022/04/28 05:53:00;;;;;;;;;;;;;;;;;;1905505;28;7101;-70
2022/04/28 05:53:57;;;;;;;;;;;;;;;;;;1905325;28;7364;-71
2022/04/28 05:54:55;;;;;;;;;;;;;;;;;;1905483;28;7113;-68
2022/04/28 05:55:52;;;;;;;;;;;;;;;;;;1905748;28;7113;-69
2022/04/28 05:56:50;;;;;;;;;;;;;;;;;;1897447;28;7201;-70
2022/04/28 05:57:47;;;;;;;;;;;;;;;;;;1896121;28;7130;-70
2022/04/28 05:58:44;;;;;;;;;;;;;;;;;;1904603;28;7221;-71
2022/04/28 05:59:42;;;;;;;;;;;;;;;;;;1905381;28;7005;-70
2022/04/28 06:00:39;;;;;;;;;;;;;;;;;;1904790;28;7142;-68
2022/04/28 06:01:37;;;;;;;;;;;;;;;;;;1905086;28;8011;-69
2022/04/28 06:02:35;;;;;;;;;;;;;;;;;;1905438;28;7014;-68
2022/04/28 06:03:33;;;;;;;;;;;;;;;;;;1905742;28;7017;-69
2022/04/28 06:04:31;;;;;;;;;;;;;;;;;;1904126;28;8025;-69
2022/04/28 06:05:28;;;;;;;;;;;;;;;;;;1904501;28;7002;-70
2022/04/28 06:06:25;;;;;;;;;;;;;;;;;;1905403;28;7089;-69
2022/04/28 06:07:23;;;;;;;;;;;;;;;;;;1905098;28;7014;-68
2022/04/28 06:08:20;;;;;;;;;;;;;;;;;;1904923;28;7045;-70
2022/04/28 06:09:18;;;;;;;;;;;;;;;;;;1905482;28;7026;-68
2022/04/28 06:10:15;;;;;;;;;;;;;;;;;;1905555;28;7038;-69
2022/04/28 06:11:13;;;;;;;;;;;;;;;;;;1905225;28;7021;-68
2022/04/28 06:12:10;;;;;;;;;;;;;;;;;;1896840;28;7177;-67
2022/04/28 06:13:08;;;;;;;;;;;;;;;;;;1897412;28;7089;-70
2022/04/28 06:14:05;;;;;;;;;;;;;;;;;;1904103;28;7034;-68
2022/04/28 06:15:03;;;;;;;;;;;;;;;;;;1905054;28;7093;-68
2022/04/28 06:16:00;;;;;;;;;;;;;;;;;;1905320;28;7010;-68
2022/04/28 06:16:58;;;;;;;;;;;;;;;;;;1905667;28;7104;-67
2022/04/28 06:17:55;;;;;;;;;;;;;;;;;;1904931;28;7092;-71
2022/04/28 06:18:52;;;;;;;;;;;;;;;;;;1905359;28;7108;-68
2022/04/28 06:19:50;;;;;;;;;;;;;;;;;;1905321;28;7132;-68
2022/04/28 06:21:07;;;;;;;;;;;;;;;;;;1904376;28;7144;-68
2022/04/28 06:22:05;;;;;;;;;;;;;;;;;;1905307;28;7009;-70
2022/04/28 06:23:02;;;;;;;;;;;;;;;;;;1904727;28;7021;-70
2022/04/28 06:23:59;;;;;;;;;;;;;;;;;;1905057;28;7041;-69
2022/04/28 06:24:58;;;;;;;;;;;;;;;;;;1904022;28;7010;-71
2022/04/28 06:25:56;;;;;;;;;;;;;;;;;;1905371;28;7120;-71
2022/04/28 06:26:53;;;;;;;;;;;;;;;;;;1905447;28;7109;-69
2022/04/28 06:27:51;;;;;;;;;;;;;;;;;;1904974;28;7447;-69
2022/04/28 06:28:48;;;;;;;;;;;;;;;;;;1904894;28;7030;-68
2022/04/28 06:29:48;;;;;;;;;;;;;;;;;;1905180;28;7292;-67
2022/04/28 06:30:45;;;;;;;;;;;;;;;;;;1905034;28;7005;-67
2022/04/28 06:31:43;;;;;;;;;;;;;;;;;;1904990;28;7089;-68
2022/04/28 06:32:41;;;;;;;;;;;;;;;;;;1905123;28;7057;-70
2022/04/28 06:33:41;;;;;;;;;;;;;;;;;;1904338;28;7963;-67
2022/04/28 06:34:38;;;;;;;;;;;;;;;;;;1904356;28;7026;-69
2022/04/28 06:35:37;;;;;;;;;;;;;;;;;;1904911;28;7013;-69
2022/04/28 06:36:34;;;;;;;;;;;;;;;;;;1905717;28;7014;-67
2022/04/28 06:37:32;;;;;;;;;;;;;;;;;;1905171;28;7096;-70
2022/04/28 06:38:29;;;;;;;;;;;;;;;;;;1905153;28;7054;-67
2022/04/28 06:39:26;;;;;;;;;;;;;;;;;;1905559;28;7009;-69
2022/04/28 06:40:24;;;;;;;;;;;;;;;;;;1905693;28;7569;-67
2022/04/28 06:41:21;;;;;;;;;;;;;;;;;;1905332;28;8118;-69
2022/04/28 06:42:19;;;;;;;;;;;;;;;;;;1905220;28;7010;-68
2022/04/28 06:43:16;;;;;;;;;;;;;;;;;;1905156;28;7300;-68
2022/04/28 06:44:14;;;;;;;;;;;;;;;;;;1905000;28;7991;-69
2022/04/28 06:45:12;;;;;;;;;;;;;;;;;;1904769;28;7313;-68
2022/04/28 06:46:12;;;;;;;;;;;;;;;;;;1895813;28;7009;-68
2022/04/28 06:47:10;;;;;;;;;;;;;;;;;;1897248;28;7352;-68
2022/04/28 06:48:07;;;;;;;;;;;;;;;;;;1905066;28;7009;-69
2022/04/28 06:49:04;;;;;;;;;;;;;;;;;;1904600;28;7135;-68
2022/04/28 06:50:02;;;;;;;;;;;;;;;;;;1904088;28;7328;-70
2022/04/28 06:51:00;;;;;;;;;;;;;;;;;;1904738;28;7005;-67
2022/04/28 06:51:57;;;;;;;;;;;;;;;;;;1903664;28;7046;-69
2022/04/28 06:52:55;;;;;;;;;;;;;;;;;;1904592;28;8028;-70
2022/04/28 06:53:52;;;;;;;;;;;;;;;;;;1905175;28;7073;-70
2022/04/28 06:54:50;;;;;;;;;;;;;;;;;;1905235;28;7001;-68
2022/04/28 06:55:47;;;;;;;;;;;;;;;;;;1904448;28;7096;-68
2022/04/28 06:56:45;;;;;;;;;;;;;;;;;;1900159;28;7056;-70
2022/04/28 06:57:43;;;;;;;;;;;;;;;;;;1897456;28;7038;-70
2022/04/28 06:58:40;;;;;;;;;;;;;;;;;;1896381;28;7097;-70